createdAt,value
2018-03-18T00:01:22.376Z,102015.80
2018-03-18T00:03:50.061Z,101998.45
2018-03-18T00:06:17.773Z,102029.14
2018-03-18T00:08:45.542Z,102027.44
2018-03-18T00:11:13.302Z,102025.66
2018-03-18T00:13:41.120Z,102036.47
2018-03-18T00:16:08.928Z,102033.05
2018-03-18T00:18:36.692Z,102039.33
2018-03-18T00:21:04.388Z,102037.08
2018-03-18T00:23:32.065Z,102047.88
2018-03-18T00:25:59.772Z,102043.58
2018-03-18T00:28:27.556Z,102035.09
2018-03-18T00:30:55.273Z,102038.73
2018-03-18T00:33:22.952Z,102046.27
2018-03-18T00:35:50.668Z,102036.08
2018-03-18T00:38:18.354Z,102040.04
2018-03-18T00:40:46.085Z,102041.65
2018-03-18T00:43:13.821Z,102040.77
2018-03-18T00:45:41.507Z,102045.83
2018-03-18T00:48:09.267Z,102040.64
2018-03-18T00:50:36.944Z,102052.83
2018-03-18T00:53:04.653Z,102048.53
2018-03-18T00:55:32.364Z,102041.75
2018-03-18T00:58:00.133Z,102048.09
2018-03-18T01:00:27.897Z,102042.48
2018-03-18T01:02:55.624Z,102044.51
2018-03-18T01:05:23.329Z,102034.47
2018-03-18T01:07:51.093Z,102038.72
2018-03-18T01:10:18.884Z,102036.02
2018-03-18T01:12:46.510Z,102041.47
2018-03-18T01:15:14.278Z,102033.66
2018-03-18T01:17:41.960Z,102041.25
2018-03-18T01:20:09.669Z,102049.95
2018-03-18T01:22:37.360Z,102029.95
2018-03-18T01:25:05.072Z,102033.66
2018-03-18T01:27:32.761Z,102029.34
2018-03-18T01:30:00.476Z,102029.28
2018-03-18T01:32:28.238Z,102022.86
2018-03-18T01:34:55.957Z,102033.75
2018-03-18T01:37:23.633Z,102022.73
2018-03-18T01:39:51.428Z,102028.08
2018-03-18T01:42:19.140Z,102032.20
2018-03-18T01:44:46.867Z,102020.27
2018-03-18T01:47:14.629Z,102034.07
2018-03-18T01:49:42.393Z,102024.28
2018-03-18T01:52:11.021Z,102022.52
2018-03-18T01:54:38.736Z,102019.09
2018-03-18T01:57:06.516Z,102027.73
2018-03-18T01:59:34.200Z,102024.00
2018-03-18T02:02:01.936Z,102022.23
2018-03-18T02:04:29.709Z,102023.40
2018-03-18T02:06:57.481Z,102018.27
2018-03-18T02:09:25.228Z,102019.03
2018-03-18T02:11:52.936Z,102026.53
2018-03-18T02:14:20.625Z,102022.61
2018-03-18T02:16:48.348Z,102023.34
2018-03-18T02:19:16.088Z,102023.21
2018-03-18T02:21:43.864Z,102022.39
2018-03-18T02:24:11.587Z,102035.33
2018-03-18T02:26:39.268Z,102028.05
2018-03-18T02:29:07.149Z,102028.94
2018-03-18T02:31:34.838Z,102020.73
2018-03-18T02:34:02.597Z,102023.27
2018-03-18T02:36:30.352Z,102026.72
2018-03-18T02:38:58.120Z,102035.80
2018-03-18T02:41:25.877Z,102036.63
2018-03-18T02:43:53.581Z,102042.52
2018-03-18T02:46:21.292Z,102035.20
2018-03-18T02:48:48.979Z,102040.71
2018-03-18T02:51:16.736Z,102030.90
2018-03-18T02:53:44.417Z,102036.24
2018-03-18T02:56:12.169Z,102025.08
2018-03-18T02:58:39.864Z,102034.69
2018-03-18T03:01:07.579Z,102024.50
2018-03-18T03:03:35.362Z,102028.20
2018-03-18T03:06:03.078Z,102031.56
2018-03-18T03:08:30.793Z,102037.89
2018-03-18T03:10:58.552Z,102038.20
2018-03-18T03:13:26.230Z,102035.23
2018-03-18T03:15:53.983Z,102038.48
2018-03-18T03:18:21.748Z,102041.39
2018-03-18T03:20:49.429Z,102032.92
2018-03-18T03:23:17.148Z,102035.52
2018-03-18T03:25:44.849Z,102036.40
2018-03-18T03:28:12.552Z,102040.51
2018-03-18T03:30:40.273Z,102042.16
2018-03-18T03:33:08.041Z,102039.14
2018-03-18T03:35:35.737Z,102034.02
2018-03-18T03:38:03.468Z,102041.99
2018-03-18T03:40:31.157Z,102040.22
2018-03-18T03:42:58.905Z,102046.55
2018-03-18T03:45:26.667Z,102036.77
2018-03-18T03:47:54.369Z,102035.00
2018-03-18T03:50:22.088Z,102042.15
2018-03-18T03:52:49.791Z,102036.48
2018-03-18T03:55:17.491Z,102038.06
2018-03-18T03:57:45.188Z,102042.20
2018-03-18T04:00:12.949Z,102041.77
2018-03-18T04:02:40.724Z,102049.67
2018-03-18T04:05:08.488Z,102050.05
2018-03-18T04:07:36.178Z,102052.48
2018-03-18T04:10:03.885Z,102051.22
2018-03-18T04:12:31.672Z,102049.00
2018-03-18T04:14:59.440Z,102054.89
2018-03-18T04:17:27.131Z,102052.70
2018-03-18T04:19:54.836Z,102058.91
2018-03-18T04:22:22.525Z,102051.38
2018-03-18T04:24:50.200Z,102059.18
2018-03-18T04:27:17.973Z,102068.86
2018-03-18T04:29:45.736Z,102052.72
2018-03-18T04:32:13.449Z,102056.42
2018-03-18T04:34:41.128Z,102055.54
2018-03-18T04:37:08.841Z,102059.77
2018-03-18T04:39:36.525Z,102062.24
2018-03-18T04:42:04.258Z,102068.13
2018-03-18T04:44:31.944Z,102068.50
2018-03-18T04:46:59.685Z,102071.70
2018-03-18T04:49:27.372Z,102067.39
2018-03-18T04:51:55.099Z,102074.89
2018-03-18T04:54:22.880Z,102075.64
2018-03-18T04:56:50.568Z,102073.11
2018-03-18T04:59:18.310Z,102084.44
2018-03-18T05:01:46.004Z,102080.54
2018-03-18T05:04:13.732Z,102087.75
2018-03-18T05:06:41.500Z,102086.42
2018-03-18T05:09:09.518Z,102088.95
2018-03-18T05:11:37.176Z,102094.45
2018-03-18T05:14:04.879Z,102089.39
2018-03-18T05:16:32.560Z,102089.56
2018-03-18T05:19:00.333Z,102091.71
2018-03-18T05:21:28.040Z,102097.66
2018-03-18T05:23:55.761Z,102094.30
2018-03-18T05:26:23.474Z,102095.57
2018-03-18T05:28:51.186Z,102106.23
2018-03-18T05:31:18.892Z,102103.70
2018-03-18T05:33:46.572Z,102104.59
2018-03-18T05:36:14.378Z,102109.00
2018-03-18T05:38:42.061Z,102110.27
2018-03-18T05:41:09.809Z,102116.27
2018-03-18T05:43:37.577Z,102110.55
2018-03-18T05:46:05.339Z,102110.78
2018-03-18T05:48:33.045Z,102117.72
2018-03-18T05:51:00.744Z,102114.94
2018-03-18T05:53:28.445Z,102114.28
2018-03-18T05:55:56.196Z,102117.48
2018-03-18T05:58:23.896Z,102127.83
2018-03-18T06:00:51.575Z,102118.37
2018-03-18T06:03:19.332Z,102118.67
2018-03-18T06:05:47.011Z,102121.43
2018-03-18T06:08:14.828Z,102125.17
2018-03-18T06:10:42.588Z,102125.97
2018-03-18T06:13:10.356Z,102134.02
2018-03-18T06:15:38.040Z,102133.20
2018-03-18T06:18:05.792Z,102141.25
2018-03-18T06:20:33.548Z,102145.51
2018-03-18T06:23:01.236Z,102142.06
2018-03-18T06:25:28.976Z,102149.28
2018-03-18T06:27:56.745Z,102140.48
2018-03-18T06:30:24.506Z,102146.77
2018-03-18T06:32:52.211Z,102141.77
2018-03-18T06:35:19.921Z,102145.98
2018-03-18T06:37:47.613Z,102154.34
2018-03-18T06:40:15.323Z,102151.27
2018-03-18T06:42:43.041Z,102151.34
2018-03-18T06:45:10.801Z,102164.52
2018-03-18T06:47:38.522Z,102160.88
2018-03-18T06:50:06.228Z,102155.27
2018-03-18T06:52:33.936Z,102162.33
2018-03-18T06:55:01.622Z,102154.66
2018-03-18T06:57:29.328Z,102156.97
2018-03-18T06:59:57.089Z,102160.30
2018-03-18T07:02:24.797Z,102156.05
2018-03-18T07:04:52.516Z,102160.73
2018-03-18T07:07:20.220Z,102168.84
2018-03-18T07:09:47.928Z,102167.62
2018-03-18T07:12:15.613Z,102165.15
2018-03-18T07:14:43.367Z,102174.84
2018-03-18T07:17:11.141Z,102170.71
2018-03-18T07:19:38.845Z,102168.16
2018-03-18T07:22:06.528Z,102167.39
2018-03-18T07:24:34.334Z,102171.70
2018-03-18T07:27:02.095Z,102180.91
2018-03-18T07:29:29.796Z,102167.33
2018-03-18T07:31:57.534Z,102173.22
2018-03-18T07:34:25.297Z,102168.03
2018-03-18T07:36:53.065Z,102168.97
2018-03-18T07:39:20.830Z,102169.23
2018-03-18T07:41:48.532Z,102163.31
2018-03-18T07:44:16.222Z,102157.55
2018-03-18T07:46:44.020Z,102159.36
2018-03-18T07:49:11.705Z,102166.73
2018-03-18T07:51:39.444Z,102158.70
2018-03-18T07:54:07.225Z,102166.36
2018-03-18T07:56:34.924Z,102162.66
2018-03-18T07:59:02.644Z,102164.34
2018-03-18T08:01:30.412Z,102162.66
2018-03-18T08:03:58.101Z,102167.39
2018-03-18T08:06:25.835Z,102166.16
2018-03-18T08:08:53.609Z,102163.05
2018-03-18T08:11:21.364Z,102166.39
2018-03-18T08:13:49.069Z,102167.75
2018-03-18T08:16:16.800Z,102166.52
2018-03-18T08:18:44.501Z,102166.69
2018-03-18T08:21:12.233Z,102153.13
2018-03-18T08:23:39.937Z,102168.45
2018-03-18T08:26:07.661Z,102166.86
2018-03-18T08:28:35.382Z,102166.41
2018-03-18T08:31:03.064Z,102167.34
2018-03-18T08:33:30.844Z,102168.64
2018-03-18T08:35:58.633Z,102166.02
2018-03-18T08:38:26.342Z,102169.36
2018-03-18T08:40:54.049Z,102156.55
2018-03-18T08:43:21.741Z,102161.95
2018-03-18T08:45:49.445Z,102165.98
2018-03-18T08:48:17.131Z,102159.45
2018-03-18T08:50:44.831Z,102153.63
2018-03-18T08:53:12.573Z,102142.94
2018-03-18T08:55:40.276Z,102147.48
2018-03-18T08:58:08.001Z,102143.53
2018-03-18T09:00:35.701Z,102148.13
2018-03-18T09:03:03.380Z,102137.87
2018-03-18T09:05:31.088Z,102141.20
2018-03-18T09:07:58.788Z,102154.91
2018-03-18T09:10:26.524Z,102140.52
2018-03-18T09:12:54.229Z,102145.03
2018-03-18T09:15:21.953Z,102134.16
2018-03-18T09:17:49.683Z,102132.73
2018-03-18T09:20:17.371Z,102140.77
2018-03-18T09:22:45.144Z,102147.03
2018-03-18T09:25:12.913Z,102146.20
2018-03-18T09:27:40.668Z,102142.19
2018-03-18T09:30:08.342Z,102132.04
2018-03-18T09:32:36.101Z,102149.23
2018-03-18T09:35:03.869Z,102152.30
2018-03-18T09:37:31.572Z,102137.84
2018-03-18T09:39:59.296Z,102139.94
2018-03-18T09:42:27.001Z,102140.38
2018-03-18T09:44:54.685Z,102134.83
2018-03-18T09:47:22.497Z,102136.53
2018-03-18T09:49:50.176Z,102136.38
2018-03-18T09:52:17.885Z,102138.08
2018-03-18T09:54:45.592Z,102138.85
2018-03-18T09:57:13.273Z,102132.47
2018-03-18T09:59:41.012Z,102138.77
2018-03-18T10:02:08.785Z,102143.28
2018-03-18T10:04:36.501Z,102154.11
2018-03-18T10:07:04.180Z,102145.37
2018-03-18T10:09:31.903Z,102136.62
2018-03-18T10:11:59.642Z,102141.08
2018-03-18T10:14:27.407Z,102133.22
2018-03-18T10:16:55.098Z,102133.85
2018-03-18T10:19:22.827Z,102135.45
2018-03-18T10:21:50.559Z,102131.99
2018-03-18T10:24:18.345Z,102127.52
2018-03-18T10:26:46.138Z,102126.34
2018-03-18T10:29:13.893Z,102123.09
2018-03-18T10:31:41.568Z,102113.16
2018-03-18T10:34:09.266Z,102115.77
2018-03-18T10:36:36.949Z,102118.34
2018-03-18T10:39:04.648Z,102108.11
2018-03-18T10:41:32.421Z,102114.72
2018-03-18T10:44:00.184Z,102116.27
2018-03-18T10:46:27.888Z,102118.47
2018-03-18T10:48:55.572Z,102116.15
2018-03-18T10:51:23.272Z,102107.34
2018-03-18T10:53:51.041Z,102098.59
2018-03-18T10:56:18.805Z,102091.20
2018-03-18T10:58:46.563Z,102105.43
2018-03-18T11:01:20.040Z,102095.92
2018-03-18T11:06:44.624Z,102090.61
2018-03-18T11:09:12.313Z,102099.20
2018-03-18T11:11:40.013Z,102092.64
2018-03-18T11:14:07.696Z,102093.39
2018-03-18T11:16:35.447Z,102086.34
2018-03-18T11:19:03.201Z,102091.19
2018-03-18T11:21:30.832Z,102091.23
2018-03-18T11:23:58.509Z,102090.14
2018-03-18T11:26:26.213Z,102081.06
2018-03-18T11:28:53.955Z,102086.08
2018-03-18T11:31:21.733Z,102083.39
2018-03-18T11:33:49.416Z,102068.11
2018-03-18T11:36:17.122Z,102078.28
2018-03-18T11:38:44.920Z,102078.13
2018-03-18T11:41:12.629Z,102074.52
2018-03-18T11:43:41.582Z,102070.02
2018-03-18T11:46:09.292Z,102076.09
2018-03-18T11:48:36.975Z,102062.17
2018-03-18T11:51:04.774Z,102072.97
2018-03-18T11:53:32.532Z,102064.19
2018-03-18T11:56:00.313Z,102062.69
2018-03-18T11:58:27.885Z,102060.43
2018-03-18T12:00:55.628Z,102061.92
2018-03-18T12:03:23.256Z,102057.06
2018-03-18T12:05:50.952Z,102049.46
2018-03-18T12:08:30.265Z,102044.41
2018-03-18T12:10:57.868Z,102036.91
2018-03-18T12:13:25.625Z,102036.16
2018-03-18T12:15:53.285Z,102029.61
2018-03-18T12:18:20.988Z,102030.17
2018-03-18T12:20:48.659Z,102041.56
2018-03-18T12:23:16.284Z,102028.38
2018-03-18T12:25:43.889Z,102028.23
2018-03-18T12:28:11.519Z,102023.72
2018-03-18T12:30:39.160Z,102005.30
2018-03-18T12:33:06.825Z,102025.53
2018-03-18T12:35:34.429Z,102002.72
2018-03-18T12:38:02.147Z,101998.33
2018-03-18T12:40:33.192Z,102012.41
2018-03-18T12:43:12.657Z,102010.78
2018-03-18T12:45:40.296Z,102000.71
2018-03-18T12:48:07.961Z,102007.55
2018-03-18T12:50:35.616Z,102001.43
2018-03-18T12:53:03.293Z,101992.27
2018-03-18T12:55:30.896Z,101998.83
2018-03-18T12:57:58.525Z,101990.75
2018-03-18T13:00:26.136Z,101988.55
2018-03-18T13:02:53.841Z,101996.15
2018-03-18T13:05:21.460Z,101989.99
2018-03-18T13:07:49.156Z,101988.36
2018-03-18T13:10:16.785Z,101974.88
2018-03-18T13:12:44.485Z,101980.00
2018-03-18T13:15:12.149Z,101985.32
2018-03-18T13:17:39.752Z,101972.69
2018-03-18T13:20:07.486Z,101971.52
2018-03-18T13:22:35.088Z,101976.05
2018-03-18T13:25:02.708Z,101974.93
2018-03-18T13:27:30.313Z,101966.88
2018-03-18T13:29:58.024Z,101962.56
2018-03-18T13:32:25.642Z,101949.01
2018-03-18T13:34:53.286Z,101953.41
2018-03-18T13:37:20.912Z,101951.05
2018-03-18T13:39:48.572Z,101954.24
2018-03-18T13:42:16.239Z,101944.84
2018-03-18T13:44:43.903Z,101947.08
2018-03-18T13:47:11.509Z,101936.48
2018-03-18T13:49:39.136Z,101939.99
2018-03-18T13:52:06.737Z,101938.75
2018-03-18T13:54:34.479Z,101931.23
2018-03-18T13:57:02.121Z,101929.95
2018-03-18T13:59:29.733Z,101916.59
2018-03-18T14:01:57.356Z,101937.31
2018-03-18T14:04:25.000Z,101928.31
2018-03-18T14:06:52.633Z,101932.59
2018-03-18T14:09:20.331Z,101934.72
2018-03-18T14:11:47.994Z,101905.95
2018-03-18T14:14:15.664Z,101937.73
2018-03-18T14:16:43.320Z,101912.97
2018-03-18T14:19:10.932Z,101909.52
2018-03-18T14:21:38.644Z,101907.41
2018-03-18T14:24:06.312Z,101905.40
2018-03-18T14:26:33.975Z,101913.52
2018-03-18T14:29:01.577Z,101898.05
2018-03-18T14:31:29.270Z,101890.28
2018-03-18T14:33:56.860Z,101904.60
2018-03-18T14:36:24.488Z,101903.20
2018-03-18T14:38:52.184Z,101885.73
2018-03-18T14:41:19.818Z,101890.01
2018-03-18T14:43:47.426Z,101898.05
2018-03-18T14:46:15.058Z,101880.17
2018-03-18T14:48:42.745Z,101896.41
2018-03-18T14:51:10.372Z,101887.45
2018-03-18T14:53:37.985Z,101884.37
2018-03-18T14:56:05.725Z,101885.65
2018-03-18T14:58:33.395Z,101875.70
2018-03-18T15:01:01.023Z,101875.86
2018-03-18T15:03:28.620Z,101876.55
2018-03-18T15:05:56.783Z,101885.59
2018-03-18T15:08:24.413Z,101881.95
2018-03-18T15:10:52.025Z,101871.84
2018-03-18T15:13:19.680Z,101884.87
2018-03-18T15:15:47.284Z,101881.76
2018-03-18T15:18:15.005Z,101876.88
2018-03-18T15:20:42.604Z,101869.16
2018-03-18T15:23:10.338Z,101871.60
2018-03-18T15:25:37.940Z,101875.64
2018-03-18T15:28:05.577Z,101872.08
2018-03-18T15:30:33.227Z,101867.20
2018-03-18T15:33:00.866Z,101875.95
2018-03-18T15:35:28.483Z,101863.33
2018-03-18T15:37:56.104Z,101862.64
2018-03-18T15:40:23.772Z,101862.48
2018-03-18T15:42:51.432Z,101854.30
2018-03-18T15:45:19.040Z,101858.89
2018-03-18T15:47:46.793Z,101863.44
2018-03-18T15:50:14.387Z,101864.28
2018-03-18T15:52:42.098Z,101867.08
2018-03-18T15:55:09.700Z,101868.55
2018-03-18T15:57:37.421Z,101847.06
2018-03-18T16:00:05.100Z,101860.95
2018-03-18T16:02:32.750Z,101868.86
2018-03-18T16:05:00.352Z,101875.49
2018-03-18T16:07:28.083Z,101872.33
2018-03-18T16:09:55.698Z,101870.45
2018-03-18T16:12:23.416Z,101888.45
2018-03-18T16:14:51.128Z,101864.41
2018-03-18T16:17:18.741Z,101865.48
2018-03-18T16:19:46.446Z,101864.08
2018-03-18T16:22:14.132Z,101863.03
2018-03-18T16:24:41.915Z,101870.54
2018-03-18T16:27:09.597Z,101866.09
2018-03-18T16:29:49.154Z,101852.62
2018-03-18T16:32:16.716Z,101861.73
2018-03-18T16:34:44.429Z,101864.86
2018-03-18T16:37:12.112Z,101855.91
2018-03-18T16:39:39.885Z,101869.19
2018-03-18T16:42:07.577Z,101867.61
2018-03-18T16:44:35.279Z,101860.09
2018-03-18T16:47:03.072Z,101872.22
2018-03-18T16:49:30.845Z,101866.42
2018-03-18T16:51:58.536Z,101869.99
2018-03-18T16:54:26.240Z,101872.25
2018-03-18T16:56:53.916Z,101867.20
2018-03-18T16:59:21.637Z,101885.53
2018-03-18T17:01:49.329Z,101882.59
2018-03-18T17:04:17.038Z,101882.25
2018-03-18T17:06:44.793Z,101873.05
2018-03-18T17:09:12.552Z,101874.08
2018-03-18T17:11:40.316Z,101879.09
2018-03-18T17:14:08.093Z,101881.42
2018-03-18T17:16:35.856Z,101885.79
2018-03-18T17:19:03.616Z,101887.99
2018-03-18T17:21:31.381Z,101880.83
2018-03-18T17:23:59.074Z,101885.22
2018-03-18T17:26:26.807Z,101884.35
2018-03-18T17:28:54.489Z,101883.64
2018-03-18T17:31:22.201Z,101882.51
2018-03-18T17:33:49.885Z,101891.61
2018-03-18T17:36:17.668Z,101884.39
2018-03-18T17:38:45.348Z,101887.59
2018-03-18T17:41:13.068Z,101898.37
2018-03-18T17:43:40.752Z,101894.72
2018-03-18T17:46:20.340Z,101895.38
2018-03-18T17:52:02.204Z,101893.96
2018-03-18T17:54:41.968Z,101903.41
2018-03-18T17:57:09.673Z,101903.97
2018-03-18T17:59:37.460Z,101904.09
2018-03-18T18:02:05.173Z,101905.19
2018-03-18T18:04:33.886Z,101905.36
2018-03-18T18:07:01.592Z,101903.45
2018-03-18T18:09:29.379Z,101903.28
2018-03-18T18:11:57.084Z,101902.22
2018-03-18T18:14:24.820Z,101904.06
2018-03-18T18:16:52.524Z,101903.88
2018-03-18T18:19:20.218Z,101908.75
2018-03-18T18:21:47.960Z,101906.02
2018-03-18T18:24:15.644Z,101906.22
2018-03-18T18:26:43.352Z,101903.50
2018-03-18T18:29:11.110Z,101903.27
2018-03-18T18:31:38.864Z,101909.84
2018-03-18T18:34:06.565Z,101906.72
2018-03-18T18:36:34.297Z,101911.19
2018-03-18T18:39:02.065Z,101911.45
2018-03-18T18:41:29.831Z,101915.48
2018-03-18T18:43:57.537Z,101919.11
2018-03-18T18:46:25.216Z,101924.80
2018-03-18T18:48:52.916Z,101922.95
2018-03-18T18:51:20.617Z,101920.56
2018-03-18T18:53:48.329Z,101919.11
2018-03-18T18:56:16.009Z,101921.03
2018-03-18T18:58:43.709Z,101920.40
2018-03-18T19:01:11.393Z,101926.24
2018-03-18T19:03:39.111Z,101926.19
2018-03-18T19:06:06.878Z,101925.70
2018-03-18T19:08:34.640Z,101926.78
2018-03-18T19:11:02.326Z,101935.13
2018-03-18T19:13:30.173Z,101925.53
2018-03-18T19:15:57.928Z,101927.89
2018-03-18T19:18:25.651Z,101933.48
2018-03-18T19:20:53.331Z,101928.16
2018-03-18T19:23:21.039Z,101936.05
2018-03-18T19:25:48.728Z,101934.92
2018-03-18T19:28:16.503Z,101934.73
2018-03-18T19:30:44.172Z,101938.31
2018-03-18T19:33:11.876Z,101935.13
2018-03-18T19:35:39.649Z,101936.22
2018-03-18T19:38:07.347Z,101942.78
2018-03-18T19:40:35.043Z,101944.30
2018-03-18T19:43:02.730Z,101941.04
2018-03-18T19:45:30.457Z,101946.91
2018-03-18T19:47:58.132Z,101953.52
2018-03-18T19:50:25.948Z,101948.69
2018-03-18T19:52:53.637Z,101953.97
2018-03-18T19:55:21.347Z,101951.63
2018-03-18T19:57:49.035Z,101955.34
2018-03-18T20:00:16.797Z,101961.06
2018-03-18T20:02:44.565Z,101962.50
2018-03-18T20:05:12.328Z,101971.16
2018-03-18T20:07:40.097Z,101964.98
2018-03-18T20:10:07.816Z,101971.55
2018-03-18T20:12:35.509Z,101973.31
2018-03-18T20:15:03.217Z,101979.91
2018-03-18T20:17:30.905Z,101973.75
2018-03-18T20:19:58.627Z,101981.66
2018-03-18T20:22:26.316Z,101973.25
2018-03-18T20:24:54.046Z,101982.26
2018-03-18T20:27:21.731Z,101974.57
2018-03-18T20:29:49.435Z,101980.14
2018-03-18T20:32:17.117Z,101982.23
2018-03-18T20:34:44.816Z,101981.78
2018-03-18T20:37:12.505Z,101987.30
2018-03-18T20:39:40.213Z,101991.64
2018-03-18T20:42:07.985Z,101996.77
2018-03-18T20:44:35.698Z,101995.59
2018-03-18T20:47:03.400Z,101999.03
2018-03-18T20:49:31.106Z,101996.15
2018-03-18T20:51:58.841Z,101996.28
2018-03-18T20:54:26.524Z,101990.73
2018-03-18T20:56:54.281Z,101995.09
2018-03-18T20:59:21.968Z,101996.87
2018-03-18T21:01:49.694Z,101999.89
2018-03-18T21:04:17.372Z,101999.48
2018-03-18T21:06:45.132Z,101999.08
2018-03-18T21:09:12.824Z,101999.94
2018-03-18T21:11:40.560Z,102004.31
2018-03-18T21:14:08.333Z,102002.73
2018-03-18T21:16:36.036Z,102001.16
2018-03-18T21:19:03.761Z,101997.03
2018-03-18T21:21:31.525Z,101999.36
2018-03-18T21:23:59.292Z,101998.77
2018-03-18T21:26:27.009Z,102000.66
2018-03-18T21:28:54.718Z,102003.00
2018-03-18T21:31:22.444Z,102001.23
2018-03-18T21:33:50.139Z,102003.62
2018-03-18T21:36:17.845Z,102003.50
2018-03-18T21:38:45.528Z,102004.47
2018-03-18T21:41:13.231Z,102002.11
2018-03-18T21:43:41.000Z,101997.59
2018-03-18T21:46:08.765Z,101999.05
2018-03-18T21:48:36.448Z,101998.78
2018-03-18T21:51:04.153Z,101996.47
2018-03-18T21:53:31.828Z,101994.94
2018-03-18T21:55:59.523Z,101988.39
2018-03-18T21:58:27.208Z,101987.20
2018-03-18T22:00:54.916Z,101986.61
2018-03-18T22:03:22.608Z,101988.44
2018-03-18T22:05:50.392Z,101989.50
2018-03-18T22:08:18.140Z,101992.97
2018-03-18T22:10:45.804Z,101991.41
2018-03-18T22:13:13.517Z,101985.17
2018-03-18T22:15:41.236Z,101987.06
2018-03-18T22:18:09.001Z,101984.64
2018-03-18T22:20:36.772Z,101986.37
2018-03-18T22:23:04.485Z,101982.80
2018-03-18T22:25:32.197Z,101984.62
2018-03-18T22:27:59.965Z,101985.23
2018-03-18T22:30:27.728Z,101991.80
2018-03-18T22:32:55.585Z,101988.67
2018-03-18T22:35:23.272Z,101987.73
2018-03-18T22:37:51.016Z,101981.62
2018-03-18T22:40:18.781Z,101989.99
2018-03-18T22:42:46.509Z,101986.86
2018-03-18T22:45:14.201Z,101984.41
2018-03-18T22:47:41.987Z,101985.11
2018-03-18T22:50:09.670Z,101987.34
2018-03-18T22:52:37.407Z,101984.02
2018-03-18T22:55:05.184Z,101982.83
2018-03-18T22:57:32.932Z,101982.62
2018-03-18T23:00:00.701Z,101979.42
2018-03-18T23:02:28.415Z,101977.00
2018-03-18T23:04:56.134Z,101975.52
2018-03-18T23:07:23.845Z,101975.24
2018-03-18T23:09:51.562Z,101977.95
2018-03-18T23:12:19.324Z,101977.28
2018-03-18T23:14:47.067Z,101970.67
2018-03-18T23:17:14.736Z,101972.23
2018-03-18T23:19:42.416Z,101967.33
2018-03-18T23:22:10.184Z,101972.69
2018-03-18T23:24:37.944Z,101968.66
2018-03-18T23:27:05.707Z,101967.95
2018-03-18T23:29:33.417Z,101965.13
2018-03-18T23:32:01.100Z,101967.30
2018-03-18T23:34:28.800Z,101963.66
2018-03-18T23:36:56.472Z,101966.13
2018-03-18T23:39:24.241Z,101962.94
2018-03-18T23:41:51.996Z,101964.88
2018-03-18T23:44:19.760Z,101969.00
2018-03-18T23:46:47.525Z,101967.12
2018-03-18T23:49:15.231Z,101964.44
2018-03-18T23:51:42.960Z,101962.23
2018-03-18T23:54:10.662Z,101962.83
2018-03-18T23:56:38.346Z,101957.98
2018-03-18T23:59:06.044Z,101958.98
